sensor_id;sensor_type;location;lat;lon;timestamp;pressure;altitude;pressure_sealevel;temperature;humidity
12247;BME280;6186;52.022;4.692;2023-02-16T00:03:40;102447.69;;;8.10;78.43
12247;BME280;6186;52.022;4.692;2023-02-16T00:06:05;102455.50;;;8.08;78.59
12247;BME280;6186;52.022;4.692;2023-02-16T00:08:31;102441.50;;;8.06;78.56
12247;BME280;6186;52.022;4.692;2023-02-16T00:10:56;102434.50;;;8.04;78.42
12247;BME280;6186;52.022;4.692;2023-02-16T00:13:40;102438.84;;;8.02;78.54
12247;BME280;6186;52.022;4.692;2023-02-16T00:16:14;102443.19;;;8.00;78.57
12247;BME280;6186;52.022;4.692;2023-02-16T00:18:39;102440.47;;;7.92;78.65
12247;BME280;6186;52.022;4.692;2023-02-16T00:21:05;102444.00;;;7.94;78.37
12247;BME280;6186;52.022;4.692;2023-02-16T00:23:30;102443.09;;;7.91;78.43
12247;BME280;6186;52.022;4.692;2023-02-16T00:25:55;102443.94;;;7.88;78.57
12247;BME280;6186;52.022;4.692;2023-02-16T00:28:20;102443.03;;;7.88;78.78
12247;BME280;6186;52.022;4.692;2023-02-16T00:30:46;102433.41;;;7.85;78.73
12247;BME280;6186;52.022;4.692;2023-02-16T00:33:16;102434.25;;;7.83;78.67
12247;BME280;6186;52.022;4.692;2023-02-16T00:35:42;102445.59;;;7.82;78.75
12247;BME280;6186;52.022;4.692;2023-02-16T00:38:07;102442.09;;;7.81;78.93
12247;BME280;6186;52.022;4.692;2023-02-16T00:40:33;102434.22;;;7.80;78.90
12247;BME280;6186;52.022;4.692;2023-02-16T00:42:58;102435.06;;;7.79;78.93
12247;BME280;6186;52.022;4.692;2023-02-16T00:45:24;102437.69;;;7.76;78.79
12247;BME280;6186;52.022;4.692;2023-02-16T00:47:51;102429.75;;;7.74;78.94
12247;BME280;6186;52.022;4.692;2023-02-16T00:52:46;102421.91;;;7.73;79.00
12247;BME280;6186;52.022;4.692;2023-02-16T00:55:14;102428.00;;;7.72;79.25
12247;BME280;6186;52.022;4.692;2023-02-16T00:57:43;102428.84;;;7.71;79.13
12247;BME280;6186;52.022;4.692;2023-02-16T01:00:18;102428.00;;;7.70;79.07
12247;BME280;6186;52.022;4.692;2023-02-16T01:02:47;102421.88;;;7.70;79.24
12247;BME280;6186;52.022;4.692;2023-02-16T01:05:13;102412.22;;;7.67;79.27
12247;BME280;6186;52.022;4.692;2023-02-16T01:07:38;102414.84;;;7.67;79.46
12247;BME280;6186;52.022;4.692;2023-02-16T01:10:23;102413.94;;;7.65;79.53
12247;BME280;6186;52.022;4.692;2023-02-16T01:13:07;102407.78;;;7.61;79.48
12247;BME280;6186;52.022;4.692;2023-02-16T01:15:33;102412.19;;;7.64;79.42
12247;BME280;6186;52.022;4.692;2023-02-16T01:17:59;102427.03;;;7.63;79.83
12247;BME280;6186;52.022;4.692;2023-02-16T01:20:25;102406.97;;;7.64;79.79
12247;BME280;6186;52.022;4.692;2023-02-16T01:22:50;102408.69;;;7.63;80.03
12247;BME280;6186;52.022;4.692;2023-02-16T01:25:16;102397.28;;;7.58;80.08
12247;BME280;6186;52.022;4.692;2023-02-16T01:27:43;102406.09;;;7.67;80.18
12247;BME280;6186;52.022;4.692;2023-02-16T01:30:15;102407.00;;;7.69;80.29
12247;BME280;6186;52.022;4.692;2023-02-16T01:32:41;102407.88;;;7.71;80.25
12247;BME280;6186;52.022;4.692;2023-02-16T01:35:07;102404.44;;;7.72;80.57
12247;BME280;6186;52.022;4.692;2023-02-16T01:37:32;102408.78;;;7.73;80.53
12247;BME280;6186;52.022;4.692;2023-02-16T01:39:57;102399.13;;;7.69;80.69
12247;BME280;6186;52.022;4.692;2023-02-16T01:42:35;102406.16;;;7.70;80.48
12247;BME280;6186;52.022;4.692;2023-02-16T01:45:14;102409.59;;;7.69;80.70
12247;BME280;6186;52.022;4.692;2023-02-16T01:47:56;102403.50;;;7.68;80.77
12247;BME280;6186;52.022;4.692;2023-02-16T01:50:26;102382.41;;;7.57;80.68
12247;BME280;6186;52.022;4.692;2023-02-16T01:53:00;102399.94;;;7.64;80.83
12247;BME280;6186;52.022;4.692;2023-02-16T01:55:32;102398.22;;;7.63;80.70
12247;BME280;6186;52.022;4.692;2023-02-16T02:01:41;102392.94;;;7.60;80.72
12247;BME280;6186;52.022;4.692;2023-02-16T02:07:57;102397.31;;;7.64;81.35
12247;BME280;6186;52.022;4.692;2023-02-16T02:10:30;102401.72;;;7.64;81.33
12247;BME280;6186;52.022;4.692;2023-02-16T02:13:06;102390.34;;;7.65;81.36
12247;BME280;6186;52.022;4.692;2023-02-16T02:15:33;102393.88;;;7.66;81.30
12247;BME280;6186;52.022;4.692;2023-02-16T02:17:59;102385.13;;;7.67;81.44
12247;BME280;6186;52.022;4.692;2023-02-16T02:35:25;102364.22;;;7.70;82.13
12247;BME280;6186;52.022;4.692;2023-02-16T02:40:51;102363.34;;;7.71;81.96
12247;BME280;6186;52.022;4.692;2023-02-16T02:43:22;102356.34;;;7.71;82.16
12247;BME280;6186;52.022;4.692;2023-02-16T02:45:54;102341.50;;;7.70;82.04
12247;BME280;6186;52.022;4.692;2023-02-16T02:48:20;102346.72;;;7.69;82.30
12247;BME280;6186;52.022;4.692;2023-02-16T02:50:56;102335.38;;;7.70;82.35
12247;BME280;6186;52.022;4.692;2023-02-16T02:53:44;102350.22;;;7.71;82.42
12247;BME280;6186;52.022;4.692;2023-02-16T02:56:14;102342.41;;;7.74;82.76
12247;BME280;6186;52.022;4.692;2023-02-16T02:59:02;102343.31;;;7.76;82.71
12247;BME280;6186;52.022;4.692;2023-02-16T03:01:51;102324.91;;;7.73;82.75
12247;BME280;6186;52.022;4.692;2023-02-16T03:04:23;102338.97;;;7.79;83.03
12247;BME280;6186;52.022;4.692;2023-02-16T03:06:52;102325.00;;;7.80;82.99
12247;BME280;6186;52.022;4.692;2023-02-16T03:09:21;102325.88;;;7.81;83.19
12247;BME280;6186;52.022;4.692;2023-02-16T03:11:48;102322.38;;;7.82;83.42
12247;BME280;6186;52.022;4.692;2023-02-16T03:15:06;102328.50;;;7.81;83.15
12247;BME280;6186;52.022;4.692;2023-02-16T03:17:32;102313.66;;;7.81;83.39
12247;BME280;6186;52.022;4.692;2023-02-16T03:20:17;102322.41;;;7.83;83.41
12247;BME280;6186;52.022;4.692;2023-02-16T03:23:04;102317.13;;;7.82;83.42
12247;BME280;6186;52.022;4.692;2023-02-16T03:25:50;102322.38;;;7.80;83.67
12247;BME280;6186;52.022;4.692;2023-02-16T03:28:37;102322.44;;;7.85;83.74
12247;BME280;6186;52.022;4.692;2023-02-16T03:31:29;102328.56;;;7.87;83.78
12247;BME280;6186;52.022;4.692;2023-02-16T03:33:55;102323.34;;;7.88;83.73
12247;BME280;6186;52.022;4.692;2023-02-16T03:36:27;102317.13;;;7.82;84.06
12247;BME280;6186;52.022;4.692;2023-02-16T03:38:54;102326.78;;;7.84;84.00
12247;BME280;6186;52.022;4.692;2023-02-16T03:41:21;102333.81;;;7.90;84.01
12247;BME280;6186;52.022;4.692;2023-02-16T03:43:47;102333.84;;;7.91;84.14
12247;BME280;6186;52.022;4.692;2023-02-16T03:46:12;102337.34;;;7.92;84.25
12247;BME280;6186;52.022;4.692;2023-02-16T03:48:37;102332.09;;;7.93;84.32
12247;BME280;6186;52.022;4.692;2023-02-16T03:51:03;102331.28;;;7.96;84.43
12247;BME280;6186;52.022;4.692;2023-02-16T03:53:28;102329.53;;;7.98;84.61
12247;BME280;6186;52.022;4.692;2023-02-16T03:55:54;102320.78;;;7.97;84.68
12247;BME280;6186;52.022;4.692;2023-02-16T03:58:21;102323.47;;;8.02;84.77
12247;BME280;6186;52.022;4.692;2023-02-16T04:00:47;102315.59;;;8.03;84.80
12247;BME280;6186;52.022;4.692;2023-02-16T04:03:13;102314.75;;;8.04;84.85
12247;BME280;6186;52.022;4.692;2023-02-16T04:05:38;102322.63;;;8.04;84.99
12247;BME280;6186;52.022;4.692;2023-02-16T04:08:05;102317.38;;;8.06;84.95
12247;BME280;6186;52.022;4.692;2023-02-16T04:10:31;102320.00;;;8.06;85.10
12247;BME280;6186;52.022;4.692;2023-02-16T04:12:56;102322.63;;;8.06;85.09
12247;BME280;6186;52.022;4.692;2023-02-16T04:15:24;102327.88;;;8.09;85.20
12247;BME280;6186;52.022;4.692;2023-02-16T04:17:53;102328.78;;;8.09;85.27
12247;BME280;6186;52.022;4.692;2023-02-16T04:20:21;102334.91;;;8.10;85.41
12247;BME280;6186;52.022;4.692;2023-02-16T04:22:47;102330.53;;;8.10;85.36
12247;BME280;6186;52.022;4.692;2023-02-16T04:25:14;102333.13;;;8.10;85.43
12247;BME280;6186;52.022;4.692;2023-02-16T04:27:40;102335.81;;;8.12;85.64
12247;BME280;6186;52.022;4.692;2023-02-16T04:30:09;102336.66;;;8.11;85.54
12247;BME280;6186;52.022;4.692;2023-02-16T04:32:35;102341.00;;;8.10;85.72
12247;BME280;6186;52.022;4.692;2023-02-16T04:35:00;102329.66;;;8.10;85.68
12247;BME280;6186;52.022;4.692;2023-02-16T04:37:26;102326.16;;;8.11;85.83
12247;BME280;6186;52.022;4.692;2023-02-16T04:39:51;102325.31;;;8.12;85.88
12247;BME280;6186;52.022;4.692;2023-02-16T04:42:17;102324.44;;;8.13;86.07
12247;BME280;6186;52.022;4.692;2023-02-16T04:44:42;102324.44;;;8.13;86.02
12247;BME280;6186;52.022;4.692;2023-02-16T04:47:07;102316.56;;;8.13;86.04
12247;BME280;6186;52.022;4.692;2023-02-16T04:49:33;102326.16;;;8.14;86.20
12247;BME280;6186;52.022;4.692;2023-02-16T04:51:58;102325.31;;;8.15;86.18
12247;BME280;6186;52.022;4.692;2023-02-16T04:54:25;102326.16;;;8.14;86.44
12247;BME280;6186;52.022;4.692;2023-02-16T04:56:50;102324.44;;;8.16;86.32
12247;BME280;6186;52.022;4.692;2023-02-16T04:59:15;102318.34;;;8.15;86.31
12247;BME280;6186;52.022;4.692;2023-02-16T05:01:41;102315.72;;;8.17;86.31
12247;BME280;6186;52.022;4.692;2023-02-16T05:04:07;102311.31;;;8.13;86.47
12247;BME280;6186;52.022;4.692;2023-02-16T05:06:34;102320.97;;;8.17;86.40
12247;BME280;6186;52.022;4.692;2023-02-16T05:09:01;102302.56;;;8.11;86.49
12247;BME280;6186;52.022;4.692;2023-02-16T05:11:26;102308.72;;;8.16;86.51
12247;BME280;6186;52.022;4.692;2023-02-16T05:14:21;102308.72;;;8.16;86.54
12247;BME280;6186;52.022;4.692;2023-02-16T05:17:14;102308.72;;;8.16;86.57
12247;BME280;6186;52.022;4.692;2023-02-16T05:19:41;102290.28;;;8.07;86.75
12247;BME280;6186;52.022;4.692;2023-02-16T05:22:08;102292.06;;;8.09;86.77
12247;BME280;6186;52.022;4.692;2023-02-16T05:24:34;102301.72;;;8.13;86.75
12247;BME280;6186;52.022;4.692;2023-02-16T05:27:02;102282.34;;;8.01;86.93
12247;BME280;6186;52.022;4.692;2023-02-16T05:29:28;102299.94;;;8.11;86.77
12247;BME280;6186;52.022;4.692;2023-02-16T05:31:53;102292.91;;;8.05;86.90
12247;BME280;6186;52.022;4.692;2023-02-16T05:34:19;102298.19;;;8.10;87.04
12247;BME280;6186;52.022;4.692;2023-02-16T05:36:44;102294.69;;;8.09;87.15
12247;BME280;6186;52.022;4.692;2023-02-16T05:39:09;102298.19;;;8.10;87.18
12247;BME280;6186;52.022;4.692;2023-02-16T05:41:34;102302.56;;;8.09;87.18
12247;BME280;6186;52.022;4.692;2023-02-16T05:44:02;102306.91;;;8.10;87.37
12247;BME280;6186;52.022;4.692;2023-02-16T05:46:29;102308.69;;;8.11;87.41
12247;BME280;6186;52.022;4.692;2023-02-16T05:48:56;102280.56;;;7.97;87.46
12247;BME280;6186;52.022;4.692;2023-02-16T05:51:22;102311.31;;;8.13;87.62
12247;BME280;6186;52.022;4.692;2023-02-16T05:53:47;102310.44;;;8.14;87.65
12247;BME280;6186;52.022;4.692;2023-02-16T05:56:13;102313.09;;;8.15;87.86
12247;BME280;6186;52.022;4.692;2023-02-16T05:58:38;102308.69;;;8.13;87.87
12247;BME280;6186;52.022;4.692;2023-02-16T06:01:04;102313.94;;;8.16;88.14
12247;BME280;6186;52.022;4.692;2023-02-16T06:03:30;102310.47;;;8.15;87.94
12247;BME280;6186;52.022;4.692;2023-02-16T06:05:58;102304.34;;;8.13;88.24
12247;BME280;6186;52.022;4.692;2023-02-16T06:08:25;102303.44;;;8.13;88.33
12247;BME280;6186;52.022;4.692;2023-02-16T06:10:51;102297.31;;;8.11;88.43
12247;BME280;6186;52.022;4.692;2023-02-16T06:13:18;102304.34;;;8.12;88.76
12247;BME280;6186;52.022;4.692;2023-02-16T06:15:44;102305.19;;;8.11;88.71
12247;BME280;6186;52.022;4.692;2023-02-16T06:18:10;102296.44;;;8.10;88.84
12247;BME280;6186;52.022;4.692;2023-02-16T06:20:37;102303.44;;;8.13;88.87
12247;BME280;6186;52.022;4.692;2023-02-16T06:23:02;102292.06;;;8.14;88.94
12247;BME280;6186;52.022;4.692;2023-02-16T06:25:28;102301.72;;;8.12;88.72
12247;BME280;6186;52.022;4.692;2023-02-16T06:27:53;102294.75;;;8.15;88.84
12247;BME280;6186;52.022;4.692;2023-02-16T06:30:24;102311.31;;;8.16;89.00
12247;BME280;6186;52.022;4.692;2023-02-16T06:32:49;102314.84;;;8.16;89.16
12247;BME280;6186;52.022;4.692;2023-02-16T06:35:15;102307.84;;;8.17;89.43
12247;BME280;6186;52.022;4.692;2023-02-16T06:37:40;102306.97;;;8.16;89.23
12247;BME280;6186;52.022;4.692;2023-02-16T06:40:07;102313.13;;;8.18;89.58
12247;BME280;6186;52.022;4.692;2023-02-16T06:42:34;102298.25;;;8.19;89.51
12247;BME280;6186;52.022;4.692;2023-02-16T06:45:00;102313.13;;;8.20;89.60
12247;BME280;6186;52.022;4.692;2023-02-16T06:47:25;102314.88;;;8.21;89.68
12247;BME280;6186;52.022;4.692;2023-02-16T06:49:50;102310.53;;;8.23;89.72
12247;BME280;6186;52.022;4.692;2023-02-16T06:52:16;102312.28;;;8.24;89.81
12247;BME280;6186;52.022;4.692;2023-02-16T06:54:41;102323.69;;;8.26;90.03
12247;BME280;6186;52.022;4.692;2023-02-16T06:57:07;102328.94;;;8.27;90.06
12247;BME280;6186;52.022;4.692;2023-02-16T06:59:32;102328.09;;;8.28;90.04
12247;BME280;6186;52.022;4.692;2023-02-16T07:01:57;102333.34;;;8.30;90.32
12247;BME280;6186;52.022;4.692;2023-02-16T07:04:22;102330.72;;;8.30;90.16
12247;BME280;6186;52.022;4.692;2023-02-16T07:06:48;102336.88;;;8.32;90.41
12247;BME280;6186;52.022;4.692;2023-02-16T07:09:13;102345.63;;;8.34;90.45
12247;BME280;6186;52.022;4.692;2023-02-16T07:11:39;102326.38;;;8.32;90.48
12247;BME280;6186;52.022;4.692;2023-02-16T07:14:04;102346.53;;;8.37;90.72
12247;BME280;6186;52.022;4.692;2023-02-16T07:16:30;102340.44;;;8.40;90.77
12247;BME280;6186;52.022;4.692;2023-02-16T07:18:55;102347.44;;;8.41;90.86
12247;BME280;6186;52.022;4.692;2023-02-16T07:21:21;102344.81;;;8.42;90.86
12247;BME280;6186;52.022;4.692;2023-02-16T07:23:46;102336.97;;;8.44;91.03
12247;BME280;6186;52.022;4.692;2023-02-16T07:26:11;102329.94;;;8.40;91.24
12247;BME280;6186;52.022;4.692;2023-02-16T07:28:37;102324.69;;;8.40;91.21
12247;BME280;6186;52.022;4.692;2023-02-16T07:31:09;102332.63;;;8.47;91.40
12247;BME280;6186;52.022;4.692;2023-02-16T07:33:36;102334.34;;;8.44;91.53
12247;BME280;6186;52.022;4.692;2023-02-16T07:36:02;102339.59;;;8.44;91.60
12247;BME280;6186;52.022;4.692;2023-02-16T07:38:27;102342.25;;;8.50;91.75
12247;BME280;6186;52.022;4.692;2023-02-16T07:40:55;102350.16;;;8.51;91.89
12247;BME280;6186;52.022;4.692;2023-02-16T07:43:20;102354.53;;;8.52;91.82
12247;BME280;6186;52.022;4.692;2023-02-16T07:45:46;102361.50;;;8.53;91.99
12247;BME280;6186;52.022;4.692;2023-02-16T07:48:11;102361.50;;;8.53;91.88
12247;BME280;6186;52.022;4.692;2023-02-16T07:50:38;102362.41;;;8.54;92.05
12247;BME280;6186;52.022;4.692;2023-02-16T07:53:03;102366.78;;;8.55;92.00
12247;BME280;6186;52.022;4.692;2023-02-16T07:55:28;102363.25;;;8.50;92.22
12247;BME280;6186;52.022;4.692;2023-02-16T07:57:54;102372.91;;;8.55;92.24
12247;BME280;6186;52.022;4.692;2023-02-16T08:00:23;102375.50;;;8.54;92.36
12247;BME280;6186;52.022;4.692;2023-02-16T08:02:48;102382.53;;;8.57;92.35
12247;BME280;6186;52.022;4.692;2023-02-16T08:05:14;102377.31;;;8.58;92.31
12247;BME280;6186;52.022;4.692;2023-02-16T08:07:39;102382.56;;;8.58;92.44
12247;BME280;6186;52.022;4.692;2023-02-16T08:10:06;102368.53;;;8.57;92.65
12247;BME280;6186;52.022;4.692;2023-02-16T08:12:31;102382.56;;;8.60;92.63
12247;BME280;6186;52.022;4.692;2023-02-16T08:14:57;102369.44;;;8.60;92.76
12247;BME280;6186;52.022;4.692;2023-02-16T08:17:22;102383.44;;;8.60;92.85
12247;BME280;6186;52.022;4.692;2023-02-16T08:19:49;102383.44;;;8.60;93.06
12247;BME280;6186;52.022;4.692;2023-02-16T08:22:16;102374.69;;;8.60;92.94
12247;BME280;6186;52.022;4.692;2023-02-16T08:24:42;102386.97;;;8.64;93.20
12247;BME280;6186;52.022;4.692;2023-02-16T08:27:08;102392.22;;;8.64;93.17
12247;BME280;6186;52.022;4.692;2023-02-16T08:29:34;102391.38;;;8.65;93.32
12247;BME280;6186;52.022;4.692;2023-02-16T08:32:00;102397.47;;;8.64;93.35
12247;BME280;6186;52.022;4.692;2023-02-16T08:34:32;102388.69;;;8.63;93.28
12247;BME280;6186;52.022;4.692;2023-02-16T08:36:58;102393.94;;;8.63;93.42
12247;BME280;6186;52.022;4.692;2023-02-16T08:39:26;102397.47;;;8.64;93.46
12247;BME280;6186;52.022;4.692;2023-02-16T08:41:53;102396.63;;;8.66;93.55
12247;BME280;6186;52.022;4.692;2023-02-16T08:44:20;102392.25;;;8.68;93.80
12247;BME280;6186;52.022;4.692;2023-02-16T08:46:49;102381.75;;;8.67;93.48
12247;BME280;6186;52.022;4.692;2023-02-16T08:49:16;102387.84;;;8.64;93.70
12247;BME280;6186;52.022;4.692;2023-02-16T08:51:47;102385.28;;;8.69;93.86
12247;BME280;6186;52.022;4.692;2023-02-16T08:54:19;102383.50;;;8.69;93.79
12247;BME280;6186;52.022;4.692;2023-02-16T08:56:45;102383.50;;;8.65;93.87
12247;BME280;6186;52.022;4.692;2023-02-16T08:59:14;102390.53;;;8.69;93.99
12247;BME280;6186;52.022;4.692;2023-02-16T09:01:39;102386.13;;;8.69;94.15
12247;BME280;6186;52.022;4.692;2023-02-16T09:04:05;102387.91;;;8.70;94.27
12247;BME280;6186;52.022;4.692;2023-02-16T09:06:35;102382.66;;;8.70;94.46
12247;BME280;6186;52.022;4.692;2023-02-16T09:09:01;102391.38;;;8.69;94.81
12247;BME280;6186;52.022;4.692;2023-02-16T09:11:29;102389.66;;;8.71;94.91
12247;BME280;6186;52.022;4.692;2023-02-16T09:13:55;102385.28;;;8.72;94.98
12247;BME280;6186;52.022;4.692;2023-02-16T09:16:22;102381.81;;;8.74;95.35
12247;BME280;6186;52.022;4.692;2023-02-16T09:18:48;102368.63;;;8.68;95.37
12247;BME280;6186;52.022;4.692;2023-02-16T09:21:18;102383.56;;;8.78;95.67
12247;BME280;6186;52.022;4.692;2023-02-16T09:23:46;102399.34;;;8.83;95.78
12247;BME280;6186;52.022;4.692;2023-02-16T09:26:13;102392.38;;;8.86;96.10
12247;BME280;6186;52.022;4.692;2023-02-16T09:28:39;102382.75;;;8.88;96.19
12247;BME280;6186;52.022;4.692;2023-02-16T09:31:34;102369.63;;;8.84;96.32
12247;BME280;6186;52.022;4.692;2023-02-16T09:34:06;102392.44;;;8.92;96.77
12247;BME280;6186;52.022;4.692;2023-02-16T09:36:32;102386.28;;;8.93;96.78
12247;BME280;6186;52.022;4.692;2023-02-16T09:38:58;102383.69;;;8.96;97.26
12247;BME280;6186;52.022;4.692;2023-02-16T09:46:57;102380.31;;;9.15;98.49
12247;BME280;6186;52.022;4.692;2023-02-16T09:49:36;102373.31;;;9.17;98.91
12247;BME280;6186;52.022;4.692;2023-02-16T09:55:06;102380.47;;;9.52;100.00
12247;BME280;6186;52.022;4.692;2023-02-16T09:57:45;102372.66;;;9.67;100.00
12247;BME280;6186;52.022;4.692;2023-02-16T10:03:17;102376.16;;;9.69;100.00
12247;BME280;6186;52.022;4.692;2023-02-16T10:05:58;102372.63;;;9.64;100.00
12247;BME280;6186;52.022;4.692;2023-02-16T10:08:30;102369.97;;;9.62;100.00
12247;BME280;6186;52.022;4.692;2023-02-16T10:11:01;102373.50;;;9.67;100.00
12247;BME280;6186;52.022;4.692;2023-02-16T10:13:41;102372.63;;;9.70;100.00
12247;BME280;6186;52.022;4.692;2023-02-16T10:16:15;102360.34;;;9.66;100.00
12247;BME280;6186;52.022;4.692;2023-02-16T10:18:49;102369.16;;;9.71;100.00
12247;BME280;6186;52.022;4.692;2023-02-16T10:21:21;102366.53;;;9.74;100.00
12247;BME280;6186;52.022;4.692;2023-02-16T10:23:52;102359.50;;;9.76;100.00
12247;BME280;6186;52.022;4.692;2023-02-16T10:26:33;102360.38;;;9.81;100.00
12247;BME280;6186;52.022;4.692;2023-02-16T10:29:16;102362.16;;;9.82;100.00
12247;BME280;6186;52.022;4.692;2023-02-16T10:34:21;102355.16;;;9.88;100.00
12247;BME280;6186;52.022;4.692;2023-02-16T10:40:04;102363.06;;;9.93;100.00
12247;BME280;6186;52.022;4.692;2023-02-16T10:42:51;102363.03;;;9.96;100.00
12247;BME280;6186;52.022;4.692;2023-02-16T10:48:10;102363.06;;;9.99;100.00
12247;BME280;6186;52.022;4.692;2023-02-16T10:50:42;102360.44;;;9.93;100.00
12247;BME280;6186;52.022;4.692;2023-02-16T10:53:18;102350.78;;;9.90;100.00
12247;BME280;6186;52.022;4.692;2023-02-16T10:55:45;102356.91;;;9.92;100.00
12247;BME280;6186;52.022;4.692;2023-02-16T10:58:16;102360.44;;;10.00;100.00
12247;BME280;6186;52.022;4.692;2023-02-16T11:03:17;102362.22;;;10.03;100.00
12247;BME280;6186;52.022;4.692;2023-02-16T11:05:46;102366.59;;;10.02;100.00
12247;BME280;6186;52.022;4.692;2023-02-16T11:08:11;102361.31;;;10.07;100.00
12247;BME280;6186;52.022;4.692;2023-02-16T11:10:42;102361.34;;;10.13;100.00
12247;BME280;6186;52.022;4.692;2023-02-16T11:13:36;102357.84;;;10.32;100.00
12247;BME280;6186;52.022;4.692;2023-02-16T11:16:07;102352.56;;;10.76;100.00
12247;BME280;6186;52.022;4.692;2023-02-16T11:18:42;102339.97;;;11.65;100.00
12247;BME280;6186;52.022;4.692;2023-02-16T11:21:10;102337.09;;;12.01;100.00
12247;BME280;6186;52.022;4.692;2023-02-16T11:23:40;102334.47;;;12.01;100.00
12247;BME280;6186;52.022;4.692;2023-02-16T11:28:44;102330.25;;;11.75;100.00
12247;BME280;6186;52.022;4.692;2023-02-16T11:31:27;102330.25;;;11.63;100.00
12247;BME280;6186;52.022;4.692;2023-02-16T11:36:45;102324.16;;;11.58;100.00
12247;BME280;6186;52.022;4.692;2023-02-16T11:39:18;102329.38;;;11.68;100.00
12247;BME280;6186;52.022;4.692;2023-02-16T11:41:54;102325.00;;;11.67;100.00
12247;BME280;6186;52.022;4.692;2023-02-16T11:47:06;102338.22;;;11.60;100.00
12247;BME280;6186;52.022;4.692;2023-02-16T11:49:41;102325.84;;;11.68;100.00
12247;BME280;6186;52.022;4.692;2023-02-16T11:54:53;102317.00;;;11.79;100.00
12247;BME280;6186;52.022;4.692;2023-02-16T11:57:27;102310.81;;;11.86;100.00
12247;BME280;6186;52.022;4.692;2023-02-16T11:59:54;102313.34;;;11.98;100.00
12247;BME280;6186;52.022;4.692;2023-02-16T12:08:08;102280.59;;;13.07;100.00
12247;BME280;6186;52.022;4.692;2023-02-16T12:13:55;102268.13;;;13.79;100.00
12247;BME280;6186;52.022;4.692;2023-02-16T12:20:09;102258.91;;;14.04;100.00
12247;BME280;6186;52.022;4.692;2023-02-16T12:22:43;102266.44;;;14.27;100.00
12247;BME280;6186;52.022;4.692;2023-02-16T12:25:34;102256.31;;;14.51;100.00
12247;BME280;6186;52.022;4.692;2023-02-16T12:28:19;102245.72;;;14.94;100.00
12247;BME280;6186;52.022;4.692;2023-02-16T12:36:03;102236.44;;;16.58;100.00
12247;BME280;6186;52.022;4.692;2023-02-16T12:38:50;102237.25;;;16.60;100.00
12247;BME280;6186;52.022;4.692;2023-02-16T12:41:35;102236.28;;;16.64;100.00
12247;BME280;6186;52.022;4.692;2023-02-16T12:44:15;102236.16;;;16.67;100.00
12247;BME280;6186;52.022;4.692;2023-02-16T12:46:45;102236.00;;;16.41;100.00
12247;BME280;6186;52.022;4.692;2023-02-16T12:49:22;102235.03;;;16.12;100.00
12247;BME280;6186;52.022;4.692;2023-02-16T12:52:06;102234.22;;;15.74;100.00
12247;BME280;6186;52.022;4.692;2023-02-16T12:54:54;102232.47;;;15.34;100.00
12247;BME280;6186;52.022;4.692;2023-02-16T12:57:25;102224.38;;;15.00;100.00
12247;BME280;6186;52.022;4.692;2023-02-16T13:02:31;102220.91;;;14.54;100.00
12247;BME280;6186;52.022;4.692;2023-02-16T13:07:41;102209.53;;;14.00;100.00
12247;BME280;6186;52.022;4.692;2023-02-16T13:12:43;102209.03;;;13.77;100.00
12247;BME280;6186;52.022;4.692;2023-02-16T13:15:20;102191.47;;;13.73;100.00
12247;BME280;6186;52.022;4.692;2023-02-16T13:18:00;102197.69;;;13.69;100.00
12247;BME280;6186;52.022;4.692;2023-02-16T13:20:27;102192.47;;;13.66;100.00
12247;BME280;6186;52.022;4.692;2023-02-16T13:36:53;102166.59;;;13.30;100.00
12247;BME280;6186;52.022;4.692;2023-02-16T13:39:33;102169.41;;;13.19;100.00
12247;BME280;6186;52.022;4.692;2023-02-16T13:42:22;102169.50;;;13.10;100.00
12247;BME280;6186;52.022;4.692;2023-02-16T13:44:58;102147.69;;;12.94;100.00
12247;BME280;6186;52.022;4.692;2023-02-16T13:47:37;102159.22;;;12.90;100.00
12247;BME280;6186;52.022;4.692;2023-02-16T13:50:07;102157.47;;;12.88;100.00
12247;BME280;6186;52.022;4.692;2023-02-16T13:52:37;102149.59;;;12.83;100.00
12247;BME280;6186;52.022;4.692;2023-02-16T13:55:20;102152.28;;;12.80;100.00
12247;BME280;6186;52.022;4.692;2023-02-16T14:00:25;102149.72;;;12.74;100.00
12247;BME280;6186;52.022;4.692;2023-02-16T14:03:03;102144.41;;;12.76;100.00
12247;BME280;6186;52.022;4.692;2023-02-16T14:05:34;102139.13;;;12.77;100.00
12247;BME280;6186;52.022;4.692;2023-02-16T14:08:27;102129.50;;;12.73;100.00
12247;BME280;6186;52.022;4.692;2023-02-16T14:18:45;102121.34;;;12.88;100.00
12247;BME280;6186;52.022;4.692;2023-02-16T14:21:36;102121.44;;;12.82;100.00
12247;BME280;6186;52.022;4.692;2023-02-16T14:24:05;102117.06;;;12.78;100.00
12247;BME280;6186;52.022;4.692;2023-02-16T14:26:51;102126.75;;;12.79;100.00
12247;BME280;6186;52.022;4.692;2023-02-16T14:29:22;102131.19;;;12.77;100.00
12247;BME280;6186;52.022;4.692;2023-02-16T14:31:57;102121.56;;;12.73;100.00
12247;BME280;6186;52.022;4.692;2023-02-16T14:34:27;102117.22;;;12.69;100.00
12247;BME280;6186;52.022;4.692;2023-02-16T14:39:45;102126.94;;;12.64;100.00
12247;BME280;6186;52.022;4.692;2023-02-16T14:42:16;102115.56;;;12.61;100.00
12247;BME280;6186;52.022;4.692;2023-02-16T14:47:36;102124.50;;;12.51;100.00
12247;BME280;6186;52.022;4.692;2023-02-16T14:50:20;102127.22;;;12.45;100.00
12247;BME280;6186;52.022;4.692;2023-02-16T14:53:18;102130.84;;;12.38;100.00
12247;BME280;6186;52.022;4.692;2023-02-16T15:01:21;102130.94;;;12.27;100.00
12247;BME280;6186;52.022;4.692;2023-02-16T15:03:52;102125.66;;;12.27;100.00
12247;BME280;6186;52.022;4.692;2023-02-16T15:06:34;102128.38;;;12.22;100.00
12247;BME280;6186;52.022;4.692;2023-02-16T15:09:21;102124.88;;;12.19;100.00
12247;BME280;6186;52.022;4.692;2023-02-16T15:14:40;102111.81;;;12.07;100.00
12247;BME280;6186;52.022;4.692;2023-02-16T15:17:07;102115.38;;;12.03;100.00
12247;BME280;6186;52.022;4.692;2023-02-16T15:19:34;102109.28;;;11.99;100.00
12247;BME280;6186;52.022;4.692;2023-02-16T15:22:20;102119.84;;;11.96;100.00
12247;BME280;6186;52.022;4.692;2023-02-16T15:25:36;102117.25;;;11.93;100.00
12247;BME280;6186;52.022;4.692;2023-02-16T15:28:23;102119.94;;;11.90;100.00
12247;BME280;6186;52.022;4.692;2023-02-16T15:31:00;102116.44;;;11.88;100.00